Time;durP1;ratioP1;P1;durP2;ratioP2;P2;SDS_P1;SDS_P2;PMS_P1;PMS_P2;Temp;Humidity;BMP_temperature;BMP_pressure;BME280_temperature;BME280_humidity;BME280_pressure;Samples;Min_cycle;Max_cycle;Signal;HPM_P1;HPM_P2
2023/09/12 00:02:27;;;;;;;;;46.00;40.00;;;;;24.36;52.30;100601.53;110436;1245;21301;-36
2023/09/12 00:04:54;;;;;;;;;53.00;43.00;;;;;24.35;52.02;100604.67;110426;1246;20149;-35
2023/09/12 00:07:21;;;;;;;;;45.00;41.00;;;;;24.33;52.09;100603.66;110449;1246;20828;-36
2023/09/12 00:09:48;;;;;;;;;57.00;45.00;;;;;24.34;52.31;100603.70;110418;1253;19676;-35
2023/09/12 00:12:16;;;;;;;;;50.00;43.50;;;;;24.32;52.06;100606.75;110435;1245;20220;-35
2023/09/12 00:14:43;;;;;;;;;49.50;42.00;;;;;24.29;52.28;100607.61;110436;1244;20911;-36
2023/09/12 00:17:10;;;;;;;;;49.67;43.00;;;;;24.28;52.30;100603.02;110458;1245;20074;-36
2023/09/12 00:19:38;;;;;;;;;52.00;44.00;;;;;24.29;52.03;100605.09;110447;1259;20105;-36
2023/09/12 00:22:05;;;;;;;;;50.00;41.00;;;;;24.24;52.09;100604.16;110435;1259;19302;-36
2023/09/12 00:24:32;;;;;;;;;47.00;40.00;;;;;24.19;52.32;100605.59;110455;1253;20267;-36
2023/09/12 00:27:00;;;;;;;;;49.50;41.50;;;;;24.21;52.18;100604.35;110437;1246;20181;-35
2023/09/12 00:29:27;;;;;;;;;43.50;40.50;;;;;24.19;52.29;100607.19;110239;1245;245448;-36
2023/09/12 00:31:54;;;;;;;;;53.00;43.00;;;;;24.20;52.30;100605.63;110445;1259;18593;-36
2023/09/12 00:34:22;;;;;;;;;51.00;42.33;;;;;24.17;52.14;100605.96;110429;1245;22273;-37
2023/09/12 00:36:49;;;;;;;;;49.50;42.00;;;;;24.18;52.12;100604.78;110460;1244;20712;-36
2023/09/12 00:39:16;;;;;;;;;49.00;43.00;;;;;24.21;52.11;100607.86;110465;1252;19902;-37
2023/09/12 00:41:43;;;;;;;;;43.33;39.67;;;;;24.17;51.83;100604.59;110484;1259;18773;-36
2023/09/12 00:44:11;;;;;;;;;50.33;43.67;;;;;24.15;52.14;100602.75;110463;1246;22131;-36
2023/09/12 00:46:38;;;;;;;;;52.50;43.50;;;;;24.18;51.73;100602.98;110447;1244;19990;-36
2023/09/12 00:49:05;;;;;;;;;48.50;44.00;;;;;24.14;51.85;100599.09;110483;1248;18768;-36
2023/09/12 00:51:33;;;;;;;;;45.50;39.00;;;;;24.11;51.93;100605.54;110428;1246;20800;-36
2023/09/12 00:54:00;;;;;;;;;52.50;43.50;;;;;24.11;52.02;100601.83;110435;1244;22178;-36
2023/09/12 00:56:27;;;;;;;;;43.67;40.00;;;;;24.11;51.99;100604.34;110451;1246;20165;-36
2023/09/12 00:58:55;;;;;;;;;45.50;41.50;;;;;24.13;51.91;100604.92;110437;1259;19339;-36
2023/09/12 01:01:22;;;;;;;;;48.00;41.00;;;;;24.10;51.87;100598.83;110443;1247;21276;-36
2023/09/12 01:03:49;;;;;;;;;46.00;41.00;;;;;24.08;51.88;100598.59;110438;1246;20068;-36
2023/09/12 01:06:16;;;;;;;;;46.00;43.00;;;;;24.10;51.66;100595.82;110426;1259;19536;-36
2023/09/12 01:08:44;;;;;;;;;48.00;40.00;;;;;24.12;51.49;100593.22;110426;1244;19972;-36
2023/09/12 01:11:11;;;;;;;;;50.00;42.50;;;;;24.12;51.71;100592.39;110441;1259;20357;-37
2023/09/12 01:13:38;;;;;;;;;48.00;42.00;;;;;24.07;51.68;100596.30;110418;1259;20962;-36
2023/09/12 01:16:06;;;;;;;;;49.00;43.00;;;;;24.06;51.46;100592.86;110450;1244;18597;-36
2023/09/12 01:18:33;;;;;;;;;48.50;40.00;;;;;24.06;51.69;100590.84;110454;1253;20016;-36
2023/09/12 01:21:00;;;;;;;;;49.00;40.00;;;;;24.05;51.50;100592.95;110416;1246;20810;-36
2023/09/12 01:23:28;;;;;;;;;52.00;42.00;;;;;24.05;51.64;100594.80;110419;1259;18621;-36
2023/09/12 01:25:55;;;;;;;;;57.00;44.00;;;;;24.05;51.40;100587.52;110412;1259;18821;-36
2023/09/12 01:28:22;;;;;;;;;47.00;40.00;;;;;24.03;51.57;100591.05;110363;1259;22855;-37
2023/09/12 01:30:49;;;;;;;;;52.00;42.00;;;;;24.05;51.71;100591.45;110427;1244;22898;-36
2023/09/12 01:33:17;;;;;;;;;41.00;40.00;;;;;24.03;51.46;100590.94;110421;1255;22897;-36
2023/09/12 01:35:46;;;;;;;;;44.00;40.00;;;;;24.05;51.59;100590.98;110332;1259;19404;-37
2023/09/12 01:38:13;;;;;;;;;45.00;41.00;;;;;24.04;51.92;100588.84;110437;1244;20842;-36
2023/09/12 01:40:40;;;;;;;;;46.33;41.33;;;;;24.01;51.69;100584.73;110412;1259;20121;-36
2023/09/12 01:43:08;;;;;;;;;52.50;42.00;;;;;24.00;51.91;100585.02;110418;1254;20614;-36
2023/09/12 01:45:35;;;;;;;;;44.50;40.00;;;;;23.98;51.89;100584.45;110416;1246;20100;-36
2023/09/12 01:48:02;;;;;;;;;53.00;45.00;;;;;23.99;51.82;100587.27;110435;1254;21668;-36
2023/09/12 01:50:30;;;;;;;;;51.00;44.00;;;;;23.94;52.23;100587.58;110420;1254;21923;-36
2023/09/12 01:52:57;;;;;;;;;50.00;44.00;;;;;23.96;52.04;100591.98;110439;1253;20088;-37
2023/09/12 01:55:24;;;;;;;;;47.00;42.50;;;;;23.95;52.30;100588.70;110376;1259;18737;-37
2023/09/12 01:57:51;;;;;;;;;43.50;40.00;;;;;23.96;52.22;100593.67;110394;1246;19518;-37
2023/09/12 02:00:19;;;;;;;;;44.00;40.00;;;;;23.96;52.32;100594.39;110443;1246;20055;-37
2023/09/12 02:02:47;;;;;;;;;49.00;40.00;;;;;23.96;52.14;100597.00;110442;1245;20216;-37
2023/09/12 02:05:15;;;;;;;;;48.00;43.33;;;;;23.96;52.05;100596.19;110451;1246;20937;-37
2023/09/12 02:07:42;;;;;;;;;47.00;43.00;;;;;23.96;52.20;100597.67;110438;1259;18628;-37
2023/09/12 02:10:10;;;;;;;;;43.00;41.00;;;;;23.94;52.02;100595.39;110434;1259;18824;-37
2023/09/12 02:12:37;;;;;;;;;44.00;39.00;;;;;23.89;52.12;100592.98;110447;1248;20757;-37
2023/09/12 02:15:05;;;;;;;;;46.67;40.00;;;;;23.90;51.89;100595.45;110389;1246;20026;-37
2023/09/12 02:17:32;;;;;;;;;55.00;44.00;;;;;23.90;51.90;100599.45;110345;1259;18704;-37
2023/09/12 02:19:59;;;;;;;;;;;;;;;23.87;52.03;100597.68;110334;1259;19392;-37
2023/09/12 02:22:27;;;;;;;;;45.50;40.00;;;;;23.90;52.19;100605.14;110379;1243;18599;-37
2023/09/12 02:24:54;;;;;;;;;49.33;43.00;;;;;23.89;52.22;100600.48;110437;1245;20262;-37
2023/09/12 02:27:21;;;;;;;;;43.33;39.67;;;;;23.87;52.08;100602.05;110431;1247;19549;-37
2023/09/12 02:29:49;;;;;;;;;44.50;43.00;;;;;23.86;51.99;100605.20;110452;1246;20161;-37
2023/09/12 02:32:16;;;;;;;;;49.00;44.00;;;;;23.85;51.96;100602.58;110429;1245;20176;-37
2023/09/12 02:34:43;;;;;;;;;50.50;42.50;;;;;23.82;52.26;100599.00;110437;1246;20764;-37
2023/09/12 02:37:11;;;;;;;;;45.50;40.00;;;;;23.86;52.37;100602.02;110443;1247;22737;-37
2023/09/12 02:39:38;;;;;;;;;43.00;39.00;;;;;23.83;52.29;100604.85;110450;1259;20110;-37
2023/09/12 02:42:05;;;;;;;;;40.00;36.50;;;;;23.80;52.32;100601.61;110455;1246;20932;-37
2023/09/12 02:44:32;;;;;;;;;44.00;40.00;;;;;23.80;52.64;100599.46;110471;1253;20016;-37
2023/09/12 02:47:00;;;;;;;;;40.00;37.00;;;;;23.82;52.49;100605.52;110287;1259;20770;-37
2023/09/12 02:49:27;;;;;;;;;43.50;37.50;;;;;23.84;52.30;100606.91;110436;1244;22687;-37
2023/09/12 02:51:54;;;;;;;;;46.50;43.00;;;;;23.81;52.31;100604.66;110436;1259;18603;-37
2023/09/12 02:54:22;;;;;;;;;;;;;;;23.78;51.95;100608.30;110453;1245;20163;-37
2023/09/12 02:56:49;;;;;;;;;44.00;40.00;;;;;23.74;52.21;100609.02;110437;1259;19323;-38
2023/09/12 02:59:17;;;;;;;;;47.00;39.00;;;;;23.78;52.34;100609.79;110438;1259;19525;-37
2023/09/12 03:01:44;;;;;;;;;47.00;42.00;;;;;23.75;52.04;100608.89;110449;1259;18687;-37
2023/09/12 03:04:12;;;;;;;;;50.00;41.00;;;;;23.77;52.11;100611.98;110444;1246;20718;-37
2023/09/12 03:06:39;;;;;;;;;40.00;35.00;;;;;23.72;51.80;100608.48;110444;1259;20462;-37
2023/09/12 03:09:07;;;;;;;;;47.00;43.00;;;;;23.74;51.78;100608.52;110439;1244;20270;-37
2023/09/12 03:11:34;;;;;;;;;48.50;42.00;;;;;23.69;51.84;100605.85;110463;1245;20921;-37
2023/09/12 03:14:02;;;;;;;;;51.33;41.00;;;;;23.68;51.59;100606.52;110373;1245;21179;-38
2023/09/12 03:16:29;;;;;;;;;42.33;38.67;;;;;23.70;51.54;100601.46;110389;1259;20084;-36
2023/09/12 03:18:56;;;;;;;;;42.00;35.00;;;;;23.68;51.45;100601.22;110383;1245;21994;-37
2023/09/12 03:21:24;;;;;;;;;48.00;43.00;;;;;23.69;51.61;100609.07;110357;1247;20897;-36
2023/09/12 03:23:51;;;;;;;;;44.00;39.50;;;;;23.68;51.38;100604.77;110419;1259;18978;-36
2023/09/12 03:26:18;;;;;;;;;47.00;43.00;;;;;23.69;51.30;100605.68;110423;1246;19565;-36
2023/09/12 03:28:46;;;;;;;;;56.00;45.00;;;;;23.67;51.18;100602.33;110367;1244;20032;-36
2023/09/12 03:31:13;;;;;;;;;48.00;40.00;;;;;23.67;51.45;100602.53;110400;1259;18599;-36
2023/09/12 03:33:41;;;;;;;;;51.00;43.50;;;;;23.70;51.39;100598.78;110412;1245;20722;-36
2023/09/12 03:36:08;;;;;;;;;52.00;43.00;;;;;23.65;51.17;100599.89;110362;1245;22745;-36
2023/09/12 03:38:35;;;;;;;;;49.00;42.33;;;;;23.64;51.40;100600.06;110400;1259;18907;-37
2023/09/12 03:41:03;;;;;;;;;51.00;44.00;;;;;23.61;51.40;100604.31;110390;1244;20821;-37
2023/09/12 03:43:30;;;;;;;;;48.00;40.00;;;;;23.65;51.42;100607.00;110425;1246;20113;-37
2023/09/12 03:45:57;;;;;;;;;41.00;39.00;;;;;23.63;51.50;100608.02;110421;1246;20200;-37
2023/09/12 03:48:25;;;;;;;;;53.00;43.00;;;;;23.61;51.38;100610.27;110430;1253;20747;-37
2023/09/12 03:50:52;;;;;;;;;47.00;42.00;;;;;23.60;51.51;100606.07;110439;1259;18599;-37
2023/09/12 03:53:20;;;;;;;;;46.00;42.00;;;;;23.61;51.32;100609.45;110433;1244;22103;-37
2023/09/12 03:55:47;;;;;;;;;48.00;42.00;;;;;23.59;51.30;100605.59;110420;1245;20826;-37
2023/09/12 03:58:14;;;;;;;;;47.00;41.00;;;;;23.61;51.45;100606.46;110414;1246;20041;-37
2023/09/12 04:00:42;;;;;;;;;49.50;42.00;;;;;23.59;51.27;100603.58;110432;1244;20101;-37
2023/09/12 04:03:09;;;;;;;;;38.50;36.00;;;;;23.59;51.12;100604.17;110411;1259;22755;-37
2023/09/12 04:05:36;;;;;;;;;43.00;39.00;;;;;23.56;50.93;100603.61;110312;1246;20029;-36
2023/09/12 04:08:04;;;;;;;;;45.00;40.00;;;;;23.55;51.16;100602.74;110310;1259;20062;-37
2023/09/12 04:10:32;;;;;;;;;45.00;40.00;;;;;23.61;51.10;100602.89;110411;1245;19483;-37
2023/09/12 04:12:59;;;;;;;;;51.00;43.00;;;;;23.57;51.09;100601.39;110444;1245;20023;-36
2023/09/12 04:15:26;;;;;;;;;48.67;42.33;;;;;23.54;51.25;100600.49;110422;1246;22814;-36
2023/09/12 04:17:54;;;;;;;;;42.00;40.50;;;;;23.52;50.96;100598.98;110343;1253;19230;-37
2023/09/12 04:20:21;;;;;;;;;41.50;38.00;;;;;23.51;50.84;100598.45;110441;1245;18631;-36
2023/09/12 04:22:48;;;;;;;;;42.50;39.00;;;;;23.54;50.93;100601.81;110349;1253;20214;-36
2023/09/12 04:25:16;;;;;;;;;52.00;45.00;;;;;23.55;51.00;100607.05;110413;1245;20909;-36
2023/09/12 04:27:43;;;;;;;;;49.00;43.00;;;;;23.53;51.14;100604.66;110456;1259;18617;-36
2023/09/12 04:30:10;;;;;;;;;37.00;36.50;;;;;23.52;51.22;100604.73;110450;1246;20139;-36
2023/09/12 04:32:37;;;;;;;;;39.50;37.00;;;;;23.48;51.51;100605.31;110406;1244;20736;-36
2023/09/12 04:35:05;;;;;;;;;42.50;38.00;;;;;23.51;51.45;100607.14;110430;1244;21783;-36
2023/09/12 04:37:32;;;;;;;;;50.00;38.00;;;;;23.58;51.62;100610.20;110453;1245;20249;-36
2023/09/12 04:39:59;;;;;;;;;55.67;45.67;;;;;23.57;51.64;100610.05;110448;1247;20771;-36
2023/09/12 04:42:27;;;;;;;;;55.00;43.00;;;;;23.51;52.24;100607.31;110450;1259;18610;-36
2023/09/12 04:44:54;;;;;;;;;50.50;45.00;;;;;23.62;52.72;100604.63;110426;1244;20075;-36
2023/09/12 04:47:22;;;;;;;;;54.00;47.00;;;;;23.49;52.60;100607.67;110408;1246;20708;-36
2023/09/12 04:49:49;;;;;;;;;48.67;42.67;;;;;23.39;52.37;100606.46;110401;1259;19931;-36
2023/09/12 04:52:16;;;;;;;;;55.00;46.00;;;;;23.43;52.73;100609.63;110438;1259;20363;-36
2023/09/12 04:54:44;;;;;;;;;744.50;694.25;;;;;23.37;52.71;100611.90;110420;1246;20742;-36
2023/09/12 04:57:12;;;;;;;;;99.00;85.00;;;;;23.40;53.19;100608.91;110433;1245;20034;-36
2023/09/12 04:59:39;;;;;;;;;85.00;67.00;;;;;23.24;53.76;100613.91;110404;1259;18704;-36
2023/09/12 05:02:06;;;;;;;;;86.50;67.00;;;;;23.17;53.93;100614.20;110407;1246;21890;-37
2023/09/12 05:04:34;;;;;;;;;72.00;59.00;;;;;23.06;54.05;100613.64;110383;1244;20042;-36
2023/09/12 05:07:01;;;;;;;;;63.00;52.00;;;;;22.99;53.84;100613.45;110414;1259;18750;-36
2023/09/12 05:09:28;;;;;;;;;64.00;49.50;;;;;22.77;54.01;100618.66;110441;1244;20762;-36
2023/09/12 05:11:56;;;;;;;;;63.00;50.00;;;;;22.57;54.02;100618.27;110420;1259;18671;-36
2023/09/12 05:14:23;;;;;;;;;68.00;56.00;;;;;22.17;55.29;100621.95;110435;1253;20013;-36
2023/09/12 05:16:50;;;;;;;;;69.50;55.50;;;;;22.11;55.51;100621.00;110412;1248;21917;-36
2023/09/12 05:19:18;;;;;;;;;69.00;54.00;;;;;22.28;55.23;100622.69;110415;1253;22757;-36
2023/09/12 05:21:45;;;;;;;;;111.00;86.00;;;;;22.67;54.31;100619.34;110366;1246;20146;-35
2023/09/12 05:24:12;;;;;;;;;101.00;77.00;;;;;22.91;53.62;100618.17;110365;1244;22242;-36
2023/09/12 05:26:40;;;;;;;;;83.00;62.50;;;;;23.04;53.51;100617.61;110410;1253;20310;-36
2023/09/12 05:29:07;;;;;;;;;75.00;56.00;;;;;23.07;53.33;100621.84;110383;1259;22859;-36
2023/09/12 05:31:34;;;;;;;;;72.00;54.50;;;;;23.16;53.13;100623.92;110384;1259;19213;-36
2023/09/12 05:34:01;;;;;;;;;66.00;51.00;;;;;23.21;52.92;100623.44;110369;1245;21224;-36
2023/09/12 05:36:29;;;;;;;;;63.00;49.00;;;;;23.17;53.28;100624.14;110384;1244;19647;-36
2023/09/12 05:38:56;;;;;;;;;56.00;47.00;;;;;23.17;53.30;100627.25;110371;1254;21198;-37
2023/09/12 05:41:23;;;;;;;;;61.67;45.33;;;;;23.17;53.71;100629.17;110386;1246;22175;-35
2023/09/12 05:43:51;;;;;;;;;58.00;46.00;;;;;23.14;53.81;100626.47;110409;1259;18743;-36
2023/09/12 05:46:18;;;;;;;;;54.00;46.00;;;;;23.15;53.90;100630.01;110422;1259;22520;-36
2023/09/12 05:48:45;;;;;;;;;101.50;73.00;;;;;23.04;54.62;100631.92;110397;1254;20006;-35
2023/09/12 05:51:13;;;;;;;;;190.00;139.00;;;;;23.12;54.58;100627.75;110444;1259;18782;-35
2023/09/12 05:53:40;;;;;;;;;222.00;162.00;;;;;23.26;53.96;100628.38;110380;1259;22748;-35
2023/09/12 05:56:07;;;;;;;;;329.00;235.50;;;;;23.26;54.16;100632.69;110377;1259;20339;-35
2023/09/12 05:58:35;;;;;;;;;96.00;70.00;;;;;22.96;55.03;100638.65;110409;1245;23750;-36
2023/09/12 06:01:03;;;;;;;;;72.50;57.50;;;;;22.69;55.83;100638.65;110412;1245;21039;-35
2023/09/12 06:03:30;;;;;;;;;65.50;54.00;;;;;22.63;56.25;100638.33;110410;1246;20055;-35
2023/09/12 06:05:57;;;;;;;;;65.00;53.00;;;;;22.60;56.59;100640.64;110450;1259;20258;-34
2023/09/12 06:08:25;;;;;;;;;67.00;52.00;;;;;22.51;56.84;100638.41;110435;1246;20794;-35
2023/09/12 06:10:54;;;;;;;;;67.50;52.00;;;;;22.41;57.65;100638.21;110452;1259;18705;-34
2023/09/12 06:13:21;;;;;;;;;63.00;50.33;;;;;22.49;57.22;100635.92;110431;1259;19679;-34
2023/09/12 06:15:49;;;;;;;;;61.00;50.00;;;;;22.51;57.34;100633.93;110427;1250;20860;-35
2023/09/12 06:18:16;;;;;;;;;67.00;53.00;;;;;22.60;57.16;100640.69;110420;1244;20049;-35
2023/09/12 06:20:43;;;;;;;;;64.00;51.00;;;;;22.66;56.90;100635.84;110379;1259;18754;-34
2023/09/12 06:23:11;;;;;;;;;67.00;54.00;;;;;22.65;57.03;100637.27;110396;1253;21579;-34
2023/09/12 06:25:38;;;;;;;;;61.50;49.50;;;;;22.65;57.30;100637.11;110434;1253;18546;-37
2023/09/12 06:28:06;;;;;;;;;69.00;55.00;;;;;22.61;57.61;100639.20;110356;1259;22306;-37
2023/09/12 06:30:33;;;;;;;;;66.00;53.33;;;;;22.67;57.33;100640.30;110325;1246;22751;-37
2023/09/12 06:33:00;;;;;;;;;59.00;51.00;;;;;22.76;57.31;100641.16;110417;1245;20052;-34
2023/09/12 06:35:27;;;;;;;;;63.00;51.00;;;;;22.76;57.31;100640.08;110418;1259;20809;-34
2023/09/12 06:37:56;;;;;;;;;63.00;50.00;;;;;22.80;56.79;100644.98;110435;1259;19390;-34
2023/09/12 06:40:24;;;;;;;;;67.00;53.00;;;;;22.82;57.13;100642.21;110394;1246;20098;-34
2023/09/12 06:42:51;;;;;;;;;63.00;50.00;;;;;22.91;56.98;100642.82;110423;1245;22868;-34
2023/09/12 06:45:18;;;;;;;;;65.50;53.00;;;;;22.97;56.61;100644.51;110412;1259;19316;-35
2023/09/12 06:47:45;;;;;;;;;67.50;52.50;;;;;23.06;56.35;100642.89;110354;1246;22231;-35
2023/09/12 06:50:13;;;;;;;;;62.50;51.00;;;;;23.10;56.63;100643.50;110405;1246;20238;-34
2023/09/12 06:52:40;;;;;;;;;64.00;53.00;;;;;23.17;56.71;100647.36;110410;1245;22113;-35
2023/09/12 06:55:08;;;;;;;;;61.00;50.00;;;;;23.17;56.77;100647.48;110390;1259;22198;-35
2023/09/12 06:57:35;;;;;;;;;63.50;53.00;;;;;23.22;56.63;100651.09;110445;1244;18698;-35
2023/09/12 07:00:06;;;;;;;;;64.00;53.50;;;;;23.18;56.81;100653.31;110422;1246;22028;-36
2023/09/12 07:02:34;;;;;;;;;66.00;53.50;;;;;23.22;56.68;100654.08;110391;1244;20044;-36
2023/09/12 07:05:01;;;;;;;;;65.50;53.50;;;;;23.17;55.98;100650.16;110408;1246;20379;-36
2023/09/12 07:07:29;;;;;;;;;65.00;50.00;;;;;23.20;56.14;100652.04;110416;1244;20790;-41
2023/09/12 07:09:56;;;;;;;;;61.00;50.00;;;;;23.40;55.41;100658.38;110435;1253;20136;-36
2023/09/12 07:12:24;;;;;;;;;62.00;49.00;;;;;23.50;55.32;100657.69;110414;1244;21725;-36
2023/09/12 07:14:51;;;;;;;;;56.50;49.00;;;;;23.58;54.29;100659.25;110400;1253;20707;-36
2023/09/12 07:17:19;;;;;;;;;64.00;51.50;;;;;23.56;53.70;100658.88;110341;1247;20314;-36
2023/09/12 07:19:46;;;;;;;;;61.00;47.00;;;;;23.72;52.86;100651.16;110397;1246;22797;-36
2023/09/12 07:22:13;;;;;;;;;64.50;50.50;;;;;23.69;53.30;100657.98;110422;1254;20652;-36
2023/09/12 07:24:41;;;;;;;;;63.50;52.00;;;;;23.87;52.99;100656.23;110415;1259;18633;-36
2023/09/12 07:27:08;;;;;;;;;62.50;46.00;;;;;23.95;53.19;100658.98;110396;1245;20353;-35
2023/09/12 07:29:36;;;;;;;;;62.00;49.67;;;;;24.08;53.13;100661.14;110412;1245;22016;-35
2023/09/12 07:32:03;;;;;;;;;64.00;52.00;;;;;24.19;52.86;100663.72;110404;1246;19977;-35
2023/09/12 07:34:30;;;;;;;;;61.50;50.00;;;;;24.16;53.25;100664.86;110442;1245;20135;-35
2023/09/12 07:36:58;;;;;;;;;57.00;45.00;;;;;24.19;54.08;100664.11;110438;1246;20764;-35
2023/09/12 07:39:25;;;;;;;;;53.67;44.00;;;;;24.33;54.39;100665.96;110471;1246;20031;-36
2023/09/12 07:41:52;;;;;;;;;56.50;44.00;;;;;24.50;54.02;100664.77;110453;1246;20214;-36
2023/09/12 07:44:20;;;;;;;;;49.00;42.00;;;;;24.57;53.63;100663.74;110418;1259;19769;-36
2023/09/12 07:46:48;;;;;;;;;55.50;43.00;;;;;24.59;53.22;100661.63;110447;1245;20139;-35
2023/09/12 07:49:15;;;;;;;;;49.67;43.33;;;;;24.64;53.14;100658.04;110422;1259;20332;-35
2023/09/12 07:51:43;;;;;;;;;45.00;42.00;;;;;24.69;52.81;100656.30;110430;1244;20849;-34
2023/09/12 07:54:10;;;;;;;;;45.50;41.50;;;;;24.69;52.68;100660.36;110419;1245;20068;-35
2023/09/12 07:56:37;;;;;;;;;44.50;40.50;;;;;24.73;52.41;100656.80;110450;1244;20135;-35
2023/09/12 07:59:05;;;;;;;;;44.50;40.00;;;;;24.80;52.19;100660.41;110439;1246;20696;-35
2023/09/12 08:01:32;;;;;;;;;37.00;36.00;;;;;24.84;52.16;100657.88;110416;1259;18618;-35
2023/09/12 08:03:59;;;;;;;;;37.00;35.00;;;;;24.90;51.91;100654.93;110399;1244;20187;-36
2023/09/12 08:06:27;;;;;;;;;46.00;39.00;;;;;24.95;51.98;100659.18;110434;1259;20825;-35
2023/09/12 08:08:54;;;;;;;;;36.00;33.00;;;;;24.96;52.21;100658.89;110446;1259;18607;-35
2023/09/12 08:11:22;;;;;;;;;41.00;34.00;;;;;24.98;52.40;100661.11;110429;1253;18758;-35
2023/09/12 08:13:49;;;;;;;;;30.00;30.00;;;;;24.96;52.29;100665.96;110432;1244;22803;-35
2023/09/12 08:16:16;;;;;;;;;33.00;30.00;;;;;24.93;52.11;100662.92;110439;1252;18699;-34
2023/09/12 08:18:44;;;;;;;;;33.00;31.00;;;;;24.94;52.20;100660.77;110439;1244;21717;-34
2023/09/12 08:21:11;;;;;;;;;30.00;26.00;;;;;24.96;52.21;100660.70;110444;1245;20731;-35
2023/09/12 08:23:38;;;;;;;;;28.50;27.00;;;;;24.96;52.25;100660.25;110418;1254;20045;-35
2023/09/12 08:26:06;;;;;;;;;30.00;27.00;;;;;24.95;52.29;100664.43;110443;1246;20078;-35
2023/09/12 08:28:33;;;;;;;;;27.50;24.50;;;;;24.96;52.29;100664.75;110432;1254;20618;-35
2023/09/12 08:31:00;;;;;;;;;27.50;25.00;;;;;24.97;52.36;100660.80;110428;1259;18645;-36
2023/09/12 08:33:28;;;;;;;;;24.00;21.00;;;;;24.96;52.40;100660.65;110377;1245;20318;-35
2023/09/12 08:35:55;;;;;;;;;18.00;18.00;;;;;24.99;52.54;100664.66;110437;1259;19355;-35
2023/09/12 08:38:22;;;;;;;;;23.00;19.00;;;;;24.98;53.00;100666.71;110429;1259;18820;-35
2023/09/12 08:40:50;;;;;;;;;21.50;18.00;;;;;25.01;52.78;100669.67;110423;1244;22553;-36
2023/09/12 08:43:17;;;;;;;;;27.00;21.00;;;;;25.04;52.80;100666.27;110443;1245;22118;-35
2023/09/12 08:45:45;;;;;;;;;23.00;21.00;;;;;25.03;52.71;100666.13;110416;1244;21567;-34
2023/09/12 08:48:13;;;;;;;;;21.00;19.00;;;;;25.03;52.44;100666.52;110438;1244;21553;-35
2023/09/12 08:50:41;;;;;;;;;21.50;21.00;;;;;25.03;52.46;100667.38;110439;1246;20840;-35
2023/09/12 08:53:08;;;;;;;;;21.50;19.00;;;;;25.04;52.50;100666.48;110435;1244;22206;-35
2023/09/12 08:55:36;;;;;;;;;17.33;17.33;;;;;25.05;52.27;100666.09;110446;1259;18671;-35
2023/09/12 08:58:03;;;;;;;;;18.00;17.67;;;;;25.07;52.06;100666.72;110403;1259;20970;-35
2023/09/12 09:00:31;;;;;;;;;18.00;17.00;;;;;25.06;51.94;100665.26;110437;1253;19799;-36
2023/09/12 09:02:58;;;;;;;;;19.67;18.67;;;;;25.06;52.01;100663.55;110433;1246;22163;-35
2023/09/12 09:05:25;;;;;;;;;17.00;15.00;;;;;25.05;52.17;100666.86;110437;1246;20819;-35
2023/09/12 09:07:53;;;;;;;;;15.00;14.00;;;;;25.04;52.19;100663.37;110342;1246;22633;-35
2023/09/12 09:10:20;;;;;;;;;15.00;14.00;;;;;25.07;51.88;100662.60;110390;1245;20232;-37
2023/09/12 09:12:48;;;;;;;;;15.00;14.00;;;;;25.08;51.89;100662.87;110382;1245;20700;-34
2023/09/12 09:15:15;;;;;;;;;15.00;14.00;;;;;25.06;52.13;100665.52;110378;1246;22155;-35
2023/09/12 09:17:42;;;;;;;;;15.00;14.50;;;;;25.06;51.94;100662.30;110346;1259;22674;-35
2023/09/12 09:20:10;;;;;;;;;13.00;13.00;;;;;25.07;51.91;100666.50;110350;1245;19504;-36
2023/09/12 09:22:37;;;;;;;;;15.00;14.00;;;;;25.06;51.78;100664.87;110387;1244;20145;-35
2023/09/12 09:25:05;;;;;;;;;14.00;14.00;;;;;25.07;51.98;100659.48;110455;1259;18697;-35
2023/09/12 09:27:32;;;;;;;;;15.50;13.50;;;;;25.08;51.89;100659.45;110325;1246;20951;-35
2023/09/12 09:29:59;;;;;;;;;13.00;13.00;;;;;25.09;51.86;100662.23;110393;1259;18626;-36
2023/09/12 09:32:26;;;;;;;;;10.00;10.00;;;;;25.08;51.98;100658.80;110412;1246;20092;-35
2023/09/12 09:34:54;;;;;;;;;10.00;10.00;;;;;25.06;51.96;100654.34;110381;1245;22242;-35
2023/09/12 09:37:21;;;;;;;;;13.00;11.00;;;;;25.06;52.28;100646.34;110382;1253;19108;-34
2023/09/12 09:39:51;;;;;;;;;13.00;11.00;;;;;25.09;52.60;100652.05;110374;1245;21198;-35
2023/09/12 09:42:19;;;;;;;;;11.00;11.00;;;;;25.10;52.60;100649.67;110370;1259;19330;-35
2023/09/12 09:44:47;;;;;;;;;11.00;11.00;;;;;25.10;52.75;100648.14;110374;1259;18611;-36
2023/09/12 09:47:14;;;;;;;;;9.00;9.00;;;;;25.11;52.68;100647.45;110413;1259;18834;-35
2023/09/12 09:49:41;;;;;;;;;10.00;10.00;;;;;25.10;52.97;100643.30;110395;1259;22390;-36
2023/09/12 09:52:09;;;;;;;;;9.00;9.00;;;;;25.06;53.17;100642.83;110403;1259;18408;-35
2023/09/12 09:54:36;;;;;;;;;15.00;14.00;;;;;25.08;53.19;100641.10;110421;1244;20094;-37
2023/09/12 09:57:03;;;;;;;;;12.00;10.50;;;;;25.19;52.00;100635.64;110376;1245;20836;-37
2023/09/12 09:59:31;;;;;;;;;9.50;9.00;;;;;25.16;52.52;100633.70;110376;1246;20074;-36
2023/09/12 10:01:58;;;;;;;;;14.00;10.33;;;;;25.14;52.57;100636.23;110421;1254;19894;-37
2023/09/12 10:04:26;;;;;;;;;11.00;10.00;;;;;25.14;52.40;100636.00;110369;1259;20802;-37
2023/09/12 10:06:53;;;;;;;;;10.00;9.00;;;;;25.15;52.27;100633.34;110413;1245;22155;-37
2023/09/12 10:09:20;;;;;;;;;7.00;7.00;;;;;25.17;52.24;100628.55;110369;1245;20492;-37
2023/09/12 10:11:48;;;;;;;;;10.00;9.00;;;;;25.17;52.22;100622.17;110383;1259;19366;-37
2023/09/12 10:14:15;;;;;;;;;10.00;9.00;;;;;25.17;52.19;100619.81;110369;1244;20986;-37
2023/09/12 10:16:42;;;;;;;;;7.00;7.00;;;;;25.16;52.34;100618.14;110404;1245;20163;-37
2023/09/12 10:19:10;;;;;;;;;7.67;7.67;;;;;25.16;52.18;100613.35;110310;1259;19351;-37
2023/09/12 10:21:38;;;;;;;;;9.00;7.00;;;;;25.17;52.27;100611.01;110388;1259;19523;-37
2023/09/12 10:24:05;;;;;;;;;9.00;7.00;;;;;25.16;52.14;100611.01;110416;1259;18690;-37
2023/09/12 10:26:32;;;;;;;;;7.00;7.00;;;;;25.16;52.15;100609.73;110396;1244;22192;-36
2023/09/12 10:29:00;;;;;;;;;6.00;6.00;;;;;25.13;52.56;100611.95;110434;1246;19714;-36
2023/09/12 10:31:27;;;;;;;;;6.50;6.00;;;;;25.12;52.32;100613.28;110444;1259;18671;-36
2023/09/12 10:33:54;;;;;;;;;7.67;6.33;;;;;25.13;52.59;100615.84;110390;1244;19513;-36
2023/09/12 10:36:22;;;;;;;;;6.00;6.00;;;;;25.14;52.34;100619.71;110394;1256;18494;-37
2023/09/12 10:38:49;;;;;;;;;10.00;10.00;;;;;25.15;52.28;100611.41;110393;1259;20862;-37
2023/09/12 10:41:16;;;;;;;;;9.00;9.00;;;;;25.14;52.13;100616.69;110404;1259;19322;-37
2023/09/12 10:43:46;;;;;;;;;9.67;7.00;;;;;25.10;52.40;100611.73;110333;1259;18594;-35
2023/09/12 10:46:14;;;;;;;;;11.00;10.00;;;;;25.12;53.29;100612.14;110363;1244;20076;-35
2023/09/12 10:48:41;;;;;;;;;6.00;6.00;;;;;25.10;53.84;100615.18;110451;1246;20748;-36
2023/09/12 10:51:08;;;;;;;;;6.50;6.50;;;;;25.06;53.76;100608.91;110410;1244;19958;-37
2023/09/12 10:53:35;;;;;;;;;6.00;6.00;;;;;25.03;53.64;100606.92;110324;1259;20322;-36
2023/09/12 10:56:03;;;;;;;;;10.00;7.00;;;;;25.01;53.81;100604.16;110463;1259;19378;-35
2023/09/12 10:58:30;;;;;;;;;7.00;7.00;;;;;25.04;54.81;100599.36;110406;1254;22515;-35
2023/09/12 11:00:58;;;;;;;;;7.00;6.00;;;;;25.19;57.47;100595.84;110441;1259;18746;-36
2023/09/12 11:03:25;;;;;;;;;6.00;6.00;;;;;25.17;58.28;100596.73;110381;1259;22655;-36